createdAt,value
2023-04-16T00:01:26.206Z,98209.03
2023-04-16T00:03:52.956Z,98210.22
2023-04-16T00:06:19.751Z,98208.72
2023-04-16T00:08:46.265Z,98210.53
2023-04-16T00:11:12.937Z,98212.38
2023-04-16T00:13:39.442Z,98208.69
2023-04-16T00:16:06.281Z,98218.22
2023-04-16T00:18:32.779Z,98206.09
2023-04-16T00:20:59.570Z,98216.72
2023-04-16T00:23:26.062Z,98210.00
2023-04-16T00:25:53.842Z,98211.59
2023-04-16T00:28:20.418Z,98214.22
2023-04-16T00:30:47.023Z,98223.03
2023-04-16T00:33:13.649Z,98217.19
2023-04-16T00:35:40.389Z,98216.91
2023-04-16T00:38:06.910Z,98219.22
2023-04-16T00:40:33.428Z,98217.66
2023-04-16T00:42:59.932Z,98217.59
2023-04-16T00:45:26.502Z,98215.78
2023-04-16T00:47:53.026Z,98214.31
2023-04-16T00:50:19.689Z,98225.22
2023-04-16T00:52:49.467Z,98221.50
2023-04-16T00:55:18.563Z,98222.34
2023-04-16T00:57:45.893Z,98222.25
2023-04-16T01:00:13.035Z,98223.78
2023-04-16T01:02:39.843Z,98222.03
2023-04-16T01:05:06.626Z,98228.69
2023-04-16T01:07:33.097Z,98217.56
2023-04-16T01:09:59.611Z,98226.31
2023-04-16T01:12:26.251Z,98225.28
2023-04-16T01:14:52.861Z,98232.22
2023-04-16T01:17:19.326Z,98224.28
2023-04-16T01:19:45.824Z,98222.44
2023-04-16T01:22:12.453Z,98227.44
2023-04-16T01:24:40.385Z,98232.53
2023-04-16T01:27:09.995Z,98234.38
2023-04-16T01:29:36.540Z,98227.88
2023-04-16T01:32:03.019Z,98234.03
2023-04-16T01:34:35.282Z,98235.03
2023-04-16T01:37:04.005Z,98240.22
2023-04-16T01:39:30.564Z,98230.06
2023-04-16T01:41:57.968Z,98237.44
2023-04-16T01:44:25.463Z,98237.59
2023-04-16T01:46:51.979Z,98237.97
2023-04-16T01:49:18.562Z,98241.78
2023-04-16T01:51:45.124Z,98240.84
2023-04-16T01:54:11.657Z,98239.84
2023-04-16T01:56:39.469Z,98245.50
2023-04-16T01:59:06.177Z,98241.09
2023-04-16T02:01:37.894Z,98238.09
2023-04-16T02:04:05.384Z,98243.59
2023-04-16T02:06:32.102Z,98240.34
2023-04-16T02:08:58.792Z,98240.09
2023-04-16T02:11:26.339Z,98233.84
2023-04-16T02:13:53.195Z,98232.56
2023-04-16T02:16:19.886Z,98233.50
2023-04-16T02:18:50.682Z,98235.00
2023-04-16T02:21:20.191Z,98237.19
2023-04-16T02:23:47.900Z,98239.38
2023-04-16T02:26:14.498Z,98240.69
2023-04-16T02:28:41.506Z,98235.00
2023-04-16T02:31:10.314Z,98245.66
2023-04-16T02:33:41.614Z,98243.28
2023-04-16T02:36:08.140Z,98247.56
2023-04-16T02:38:37.413Z,98247.16
2023-04-16T02:41:03.956Z,98246.50
2023-04-16T02:43:30.599Z,98245.25
2023-04-16T02:45:59.210Z,98244.88
2023-04-16T02:48:25.761Z,98252.91
2023-04-16T02:50:52.231Z,98252.25
2023-04-16T02:53:18.728Z,98257.38
2023-04-16T02:55:55.297Z,98249.66
2023-04-16T02:58:23.922Z,98260.63
2023-04-16T03:00:50.900Z,98246.53
2023-04-16T03:03:17.718Z,98247.66
2023-04-16T03:05:44.247Z,98248.97
2023-04-16T03:08:11.152Z,98261.22
2023-04-16T03:10:37.749Z,98258.88
2023-04-16T03:13:04.473Z,98244.06
2023-04-16T03:15:31.477Z,98257.72
2023-04-16T03:17:58.547Z,98252.75
2023-04-16T03:20:25.405Z,98270.09
2023-04-16T03:22:52.705Z,98263.81
2023-04-16T03:25:19.253Z,98262.16
2023-04-16T03:27:46.070Z,98259.44
2023-04-16T03:30:14.197Z,98262.03
2023-04-16T03:32:41.365Z,98262.91
2023-04-16T03:35:08.935Z,98263.31
2023-04-16T03:37:56.001Z,98265.50
2023-04-16T03:40:22.601Z,98266.44
2023-04-16T03:42:49.517Z,98270.88
2023-04-16T03:45:16.534Z,98268.47
2023-04-16T03:47:44.051Z,98274.88
2023-04-16T03:50:11.521Z,98284.88
2023-04-16T03:52:38.373Z,98273.59
2023-04-16T03:55:05.336Z,98276.63
2023-04-16T03:57:31.872Z,98277.72
2023-04-16T04:00:04.950Z,98275.69
2023-04-16T04:02:41.041Z,98275.63
2023-04-16T04:05:13.533Z,98279.59
2023-04-16T04:07:40.545Z,98277.88
2023-04-16T04:10:08.702Z,98279.00
2023-04-16T04:12:38.870Z,98287.34
2023-04-16T04:15:06.052Z,98289.16
2023-04-16T04:17:32.628Z,98287.69
2023-04-16T04:20:01.636Z,98291.75
2023-04-16T04:22:29.759Z,98292.31
2023-04-16T04:24:56.303Z,98290.59
2023-04-16T04:27:23.139Z,98290.09
2023-04-16T04:29:49.655Z,98299.13
2023-04-16T04:32:16.229Z,98297.09
2023-04-16T04:34:43.706Z,98298.41
2023-04-16T04:37:10.527Z,98308.03
2023-04-16T04:39:38.153Z,98305.56
2023-04-16T04:42:04.656Z,98308.94
2023-04-16T04:44:31.568Z,98308.56
2023-04-16T04:46:58.062Z,98316.28
2023-04-16T04:49:24.910Z,98312.97
2023-04-16T04:51:52.587Z,98317.06
2023-04-16T04:54:20.460Z,98318.72
2023-04-16T04:56:47.308Z,98326.13
2023-04-16T04:59:14.462Z,98326.13
2023-04-16T05:01:41.661Z,98326.47
2023-04-16T05:04:08.326Z,98324.44
2023-04-16T05:06:34.901Z,98330.28
2023-04-16T05:09:01.453Z,98334.97
2023-04-16T05:11:27.954Z,98337.00
2023-04-16T05:13:54.486Z,98342.41
2023-04-16T05:16:21.013Z,98346.25
2023-04-16T05:18:47.556Z,98347.00
2023-04-16T05:21:14.113Z,98344.78
2023-04-16T05:23:40.696Z,98358.28
2023-04-16T05:26:07.196Z,98354.03
2023-04-16T05:28:33.847Z,98358.09
2023-04-16T05:31:00.699Z,98359.38
2023-04-16T05:33:27.626Z,98362.56
2023-04-16T05:35:54.218Z,98361.25
2023-04-16T05:38:20.722Z,98368.97
2023-04-16T05:40:47.226Z,98368.44
2023-04-16T05:43:13.938Z,98367.69
2023-04-16T05:45:41.370Z,98371.03
2023-04-16T05:48:09.249Z,98372.88
2023-04-16T05:50:36.585Z,98383.56
2023-04-16T05:53:06.137Z,98388.94
2023-04-16T05:55:32.961Z,98386.91
2023-04-16T05:57:59.521Z,98382.84
2023-04-16T06:00:26.115Z,98388.75
2023-04-16T06:02:52.749Z,98388.44
2023-04-16T06:05:19.530Z,98393.06
2023-04-16T06:07:46.016Z,98392.47
2023-04-16T06:10:12.555Z,98391.66
2023-04-16T06:12:39.024Z,98391.34
2023-04-16T06:15:06.366Z,98381.31
2023-04-16T06:17:32.891Z,98388.63
2023-04-16T06:19:59.468Z,98386.19
2023-04-16T06:22:26.211Z,98395.06
2023-04-16T06:24:53.494Z,98396.72
2023-04-16T06:27:20.089Z,98390.25
2023-04-16T06:29:48.347Z,98397.66
2023-04-16T06:32:14.899Z,98403.03
2023-04-16T06:34:41.659Z,98400.75
2023-04-16T06:37:10.510Z,98398.78
2023-04-16T06:39:37.307Z,98402.09
2023-04-16T06:42:04.277Z,98401.16
2023-04-16T06:44:30.929Z,98408.34
2023-04-16T06:46:57.576Z,98406.00
2023-04-16T06:49:24.343Z,98410.78
2023-04-16T06:51:50.894Z,98421.34
2023-04-16T06:54:17.787Z,98413.38
2023-04-16T06:56:44.358Z,98416.53
2023-04-16T06:59:11.107Z,98421.50
2023-04-16T07:01:37.848Z,98418.50
2023-04-16T07:04:04.633Z,98414.25
2023-04-16T07:06:31.927Z,98413.91
2023-04-16T07:08:58.503Z,98419.66
2023-04-16T07:11:25.870Z,98424.09
2023-04-16T07:13:53.808Z,98432.41
2023-04-16T07:16:20.800Z,98422.25
2023-04-16T07:18:47.506Z,98433.41
2023-04-16T07:21:14.061Z,98423.00
2023-04-16T07:23:40.708Z,98428.72
2023-04-16T07:26:07.419Z,98426.50
2023-04-16T07:28:34.009Z,98435.94
2023-04-16T07:31:00.578Z,98432.56
2023-04-16T07:33:27.521Z,98431.28
2023-04-16T07:35:54.040Z,98435.19
2023-04-16T07:38:20.656Z,98444.97
2023-04-16T07:40:47.143Z,98438.91
2023-04-16T07:43:15.364Z,98446.84
2023-04-16T07:45:42.044Z,98448.13
2023-04-16T07:48:09.112Z,98447.91
2023-04-16T07:50:36.307Z,98454.44
2023-04-16T07:53:03.740Z,98447.97
2023-04-16T07:55:30.380Z,98452.22
2023-04-16T07:57:57.361Z,98454.97
2023-04-16T08:00:23.831Z,98460.53
2023-04-16T08:02:51.250Z,98460.53
2023-04-16T08:05:18.092Z,98465.16
2023-04-16T08:07:44.644Z,98468.13
2023-04-16T08:10:11.355Z,98472.03
2023-04-16T08:12:38.051Z,98471.84
2023-04-16T08:15:05.648Z,98471.59
2023-04-16T08:17:34.397Z,98473.88
2023-04-16T08:20:01.716Z,98482.91
2023-04-16T08:22:28.361Z,98483.28
2023-04-16T08:24:55.064Z,98479.59
2023-04-16T08:27:21.566Z,98490.31
2023-04-16T08:29:48.490Z,98487.69
2023-04-16T08:32:15.136Z,98484.97
2023-04-16T08:34:41.929Z,98490.16
2023-04-16T08:37:08.560Z,98499.22
2023-04-16T08:39:35.333Z,98499.38
2023-04-16T08:42:04.954Z,98499.72
2023-04-16T08:44:36.259Z,98507.16
2023-04-16T08:47:03.261Z,98506.69
2023-04-16T08:49:30.019Z,98505.84
2023-04-16T08:51:56.985Z,98510.44
2023-04-16T08:54:38.648Z,98511.75
2023-04-16T08:57:07.447Z,98505.84
2023-04-16T08:59:34.345Z,98510.94
2023-04-16T09:02:01.313Z,98516.09
2023-04-16T09:04:28.788Z,98512.03
2023-04-16T09:06:56.571Z,98513.22
2023-04-16T09:09:23.813Z,98522.31
2023-04-16T09:11:52.431Z,98522.28
2023-04-16T09:14:19.364Z,98522.84
2023-04-16T09:16:47.723Z,98520.47
2023-04-16T09:19:15.019Z,98527.50
2023-04-16T09:21:42.213Z,98528.53
2023-04-16T09:24:09.783Z,98532.19
2023-04-16T09:26:36.636Z,98529.72
2023-04-16T09:29:03.252Z,98528.88
2023-04-16T09:31:29.938Z,98530.66
2023-04-16T09:34:08.120Z,98526.91
2023-04-16T09:36:36.260Z,98537.41
2023-04-16T09:39:03.840Z,98545.22
2023-04-16T09:41:32.893Z,98538.50
2023-04-16T09:44:01.797Z,98541.16
2023-04-16T09:46:31.850Z,98544.16
2023-04-16T09:48:58.411Z,98544.25
2023-04-16T09:51:27.061Z,98554.69
2023-04-16T09:53:54.819Z,98551.75
2023-04-16T09:56:24.495Z,98553.81
2023-04-16T09:58:51.009Z,98550.28
2023-04-16T10:01:19.638Z,98559.91
2023-04-16T10:03:49.947Z,98559.00
2023-04-16T10:06:19.356Z,98564.88
2023-04-16T10:08:53.794Z,98558.44
2023-04-16T10:11:21.277Z,98568.44
2023-04-16T10:13:47.770Z,98563.38
2023-04-16T10:16:14.295Z,98569.00
2023-04-16T10:18:42.229Z,98555.75
2023-04-16T10:21:11.659Z,98565.19
2023-04-16T10:23:42.077Z,98564.47
2023-04-16T10:26:08.616Z,98569.09
2023-04-16T10:28:35.720Z,98575.06
2023-04-16T10:31:04.204Z,98568.91
2023-04-16T10:33:32.782Z,98573.31
2023-04-16T10:36:09.783Z,98571.88
2023-04-16T10:38:40.092Z,98573.38
2023-04-16T10:41:07.470Z,98573.88
2023-04-16T10:43:40.483Z,98575.75
2023-04-16T10:46:24.194Z,98577.63
2023-04-16T10:48:54.205Z,98575.38
2023-04-16T10:51:24.937Z,98574.19
2023-04-16T10:53:51.811Z,98578.00
2023-04-16T10:56:26.383Z,98577.81
2023-04-16T10:58:55.029Z,98571.50
2023-04-16T11:01:30.384Z,98573.56
2023-04-16T11:03:59.910Z,98576.41
2023-04-16T11:06:27.887Z,98580.41
2023-04-16T11:08:55.402Z,98579.63
2023-04-16T11:11:22.522Z,98579.47
2023-04-16T11:13:49.152Z,98580.22
2023-04-16T11:16:16.863Z,98582.34
2023-04-16T11:18:51.064Z,98583.94
2023-04-16T11:21:18.267Z,98584.66
2023-04-16T11:23:53.101Z,98585.28
2023-04-16T11:26:29.442Z,98583.94
2023-04-16T11:28:57.302Z,98596.69
2023-04-16T11:31:24.399Z,98586.03
2023-04-16T11:33:51.043Z,98585.00
2023-04-16T11:36:17.595Z,98588.56
2023-04-16T11:38:44.341Z,98597.88
2023-04-16T11:41:11.145Z,98592.44
2023-04-16T11:43:37.683Z,98584.19
2023-04-16T11:46:16.682Z,98589.84
2023-04-16T11:48:52.859Z,98589.53
2023-04-16T11:51:19.638Z,98588.25
2023-04-16T11:53:47.628Z,98593.06
2023-04-16T11:56:14.394Z,98602.22
2023-04-16T11:58:42.504Z,98591.06
2023-04-16T12:01:10.069Z,98592.16
2023-04-16T12:03:46.836Z,98595.00
2023-04-16T12:06:13.620Z,98598.72
2023-04-16T12:08:40.217Z,98594.91
2023-04-16T12:11:06.789Z,98594.78
2023-04-16T12:13:39.757Z,98597.81
2023-04-16T12:16:17.903Z,98599.38
2023-04-16T12:18:59.711Z,98596.75
2023-04-16T12:21:26.497Z,98604.16
2023-04-16T12:23:53.644Z,98604.50
2023-04-16T12:26:20.112Z,98603.56
2023-04-16T12:28:46.675Z,98601.94
2023-04-16T12:31:13.182Z,98612.50
2023-04-16T12:33:39.798Z,98608.09
2023-04-16T12:36:19.274Z,98609.66
2023-04-16T12:38:46.500Z,98608.63
2023-04-16T12:41:12.961Z,98606.53
2023-04-16T12:43:39.554Z,98601.78
2023-04-16T12:46:06.689Z,98613.03
2023-04-16T12:48:33.755Z,98605.56
2023-04-16T12:51:00.291Z,98604.50
2023-04-16T12:53:27.164Z,98613.78
2023-04-16T12:55:53.798Z,98602.69
2023-04-16T12:58:20.258Z,98605.25
2023-04-16T13:00:46.766Z,98598.91
2023-04-16T13:03:13.461Z,98597.84
2023-04-16T13:05:40.663Z,98603.03
2023-04-16T13:08:07.271Z,98596.50
2023-04-16T13:10:35.011Z,98600.03
2023-04-16T13:13:01.497Z,98598.81
2023-04-16T13:15:28.039Z,98610.81
2023-04-16T13:17:54.588Z,98603.59
2023-04-16T13:20:23.199Z,98605.03
2023-04-16T13:22:50.846Z,98602.69
2023-04-16T13:25:17.492Z,98605.25
2023-04-16T13:27:43.966Z,98604.53
2023-04-16T13:30:10.991Z,98602.66
2023-04-16T13:32:37.768Z,98603.88
2023-04-16T13:35:04.617Z,98609.53
2023-04-16T13:37:31.092Z,98605.66
2023-04-16T13:39:57.688Z,98611.56
2023-04-16T13:42:24.440Z,98611.56
2023-04-16T13:44:54.049Z,98615.06
2023-04-16T13:47:20.841Z,98618.97
2023-04-16T13:49:47.604Z,98610.41
2023-04-16T13:52:14.153Z,98610.09
2023-04-16T13:54:41.424Z,98612.31
2023-04-16T13:57:19.773Z,98609.72
2023-04-16T13:59:46.296Z,98607.69
2023-04-16T14:02:12.998Z,98613.81
2023-04-16T14:04:39.559Z,98615.25
2023-04-16T14:07:06.063Z,98611.94
2023-04-16T14:09:32.525Z,98606.75
2023-04-16T14:11:59.019Z,98608.97
2023-04-16T14:14:26.166Z,98611.22
2023-04-16T14:16:54.761Z,98617.50
2023-04-16T14:19:21.358Z,98613.81
2023-04-16T14:21:47.917Z,98614.88
2023-04-16T14:24:14.415Z,98609.69
2023-04-16T14:26:43.144Z,98610.25
2023-04-16T14:29:10.445Z,98610.28
2023-04-16T14:31:37.367Z,98609.25
2023-04-16T14:34:03.884Z,98614.16
2023-04-16T14:36:31.155Z,98607.81
2023-04-16T14:38:57.758Z,98604.06
2023-04-16T14:41:25.257Z,98597.41
2023-04-16T14:43:51.787Z,98605.13
2023-04-16T14:46:19.244Z,98607.16
2023-04-16T14:48:46.000Z,98609.03
2023-04-16T14:51:12.765Z,98607.38
2023-04-16T14:53:39.293Z,98611.03
2023-04-16T14:56:05.855Z,98606.75
2023-04-16T14:58:32.622Z,98607.63
2023-04-16T15:00:59.520Z,98613.03
2023-04-16T15:03:26.827Z,98611.94
2023-04-16T15:05:56.341Z,98621.00
2023-04-16T15:08:23.450Z,98626.72
2023-04-16T15:10:50.923Z,98621.19
2023-04-16T15:13:17.640Z,98614.50
2023-04-16T15:15:44.242Z,98615.53
2023-04-16T15:18:10.814Z,98623.06
2023-04-16T15:20:37.266Z,98617.66
2023-04-16T15:23:03.722Z,98621.91
2023-04-16T15:25:30.266Z,98621.56
2023-04-16T15:27:56.728Z,98618.19
2023-04-16T15:30:23.230Z,98626.75
2023-04-16T15:32:49.845Z,98625.09
2023-04-16T15:35:16.536Z,98615.84
2023-04-16T15:37:42.999Z,98612.69
2023-04-16T15:40:10.719Z,98615.25
2023-04-16T15:42:37.260Z,98624.84
2023-04-16T15:45:03.978Z,98630.66
2023-04-16T15:47:30.632Z,98627.47
2023-04-16T15:49:57.139Z,98626.78
2023-04-16T15:52:23.672Z,98622.31
2023-04-16T15:54:50.291Z,98629.19
2023-04-16T15:57:16.892Z,98628.72
2023-04-16T15:59:50.130Z,98628.19
2023-04-16T16:02:26.316Z,98622.84
2023-04-16T16:04:53.184Z,98629.34
2023-04-16T16:07:20.483Z,98639.53
2023-04-16T16:09:48.139Z,98632.50
2023-04-16T16:12:15.271Z,98636.03
2023-04-16T16:14:43.654Z,98638.22
2023-04-16T16:17:10.142Z,98635.56
2023-04-16T16:19:36.648Z,98636.16
2023-04-16T16:22:04.231Z,98643.78
2023-04-16T16:24:30.729Z,98641.13
2023-04-16T16:26:57.202Z,98648.13
2023-04-16T16:29:25.347Z,98642.31
2023-04-16T16:31:51.908Z,98643.38
2023-04-16T16:34:21.120Z,98651.94
2023-04-16T16:36:48.590Z,98642.50
2023-04-16T16:39:15.158Z,98647.81
2023-04-16T16:41:42.107Z,98641.41
2023-04-16T16:44:09.648Z,98639.25
2023-04-16T16:46:36.909Z,98643.22
2023-04-16T16:49:06.225Z,98642.66
2023-04-16T16:51:34.148Z,98646.47
2023-04-16T16:54:01.030Z,98646.88
2023-04-16T16:56:28.012Z,98645.84
2023-04-16T16:58:54.650Z,98657.03
2023-04-16T17:01:21.269Z,98647.94
2023-04-16T17:03:48.073Z,98651.19
2023-04-16T17:06:14.736Z,98656.72
2023-04-16T17:08:41.271Z,98653.41
2023-04-16T17:11:07.791Z,98652.69
2023-04-16T17:13:34.874Z,98650.06
2023-04-16T17:16:01.376Z,98648.44
2023-04-16T17:18:28.112Z,98653.63
2023-04-16T17:20:54.607Z,98656.81
2023-04-16T17:23:21.224Z,98663.63
2023-04-16T17:25:47.706Z,98662.19
2023-04-16T17:28:14.160Z,98667.81
2023-04-16T17:30:40.962Z,98656.75
2023-04-16T17:33:07.559Z,98663.34
2023-04-16T17:35:34.461Z,98658.94
2023-04-16T17:38:01.334Z,98664.13
2023-04-16T17:40:27.809Z,98664.81
2023-04-16T17:42:54.322Z,98667.75
2023-04-16T17:45:20.981Z,98670.81
2023-04-16T17:47:47.518Z,98668.97
2023-04-16T17:50:14.340Z,98676.69
2023-04-16T17:52:41.125Z,98672.59
2023-04-16T17:55:07.729Z,98680.72
2023-04-16T17:57:34.196Z,98683.78
2023-04-16T18:00:00.952Z,98679.03
2023-04-16T18:02:27.806Z,98683.06
2023-04-16T18:04:54.684Z,98683.03
2023-04-16T18:07:21.216Z,98686.34
2023-04-16T18:09:47.759Z,98682.69
2023-04-16T18:12:14.245Z,98680.00
2023-04-16T18:14:44.891Z,98685.22
2023-04-16T18:17:11.647Z,98686.03
2023-04-16T18:19:40.179Z,98686.28
2023-04-16T18:22:06.651Z,98689.88
2023-04-16T18:24:35.304Z,98699.88
2023-04-16T18:27:02.807Z,98686.34
2023-04-16T18:29:29.685Z,98690.97
2023-04-16T18:31:56.375Z,98702.66
2023-04-16T18:34:23.466Z,98697.88
2023-04-16T18:36:49.953Z,98699.72
2023-04-16T18:39:16.616Z,98706.56
2023-04-16T18:41:47.570Z,98711.19
2023-04-16T18:44:15.091Z,98714.28
2023-04-16T18:46:41.851Z,98715.31
2023-04-16T18:49:08.505Z,98718.38
2023-04-16T18:51:35.127Z,98715.22
2023-04-16T18:54:01.740Z,98714.19
2023-04-16T18:56:29.914Z,98719.72
2023-04-16T18:58:56.529Z,98723.78
2023-04-16T19:01:23.192Z,98722.50
2023-04-16T19:03:49.803Z,98726.53
2023-04-16T19:06:16.306Z,98721.34
2023-04-16T19:08:43.067Z,98728.00
2023-04-16T19:11:09.630Z,98729.91
2023-04-16T19:13:36.496Z,98732.34
2023-04-16T19:16:04.905Z,98742.69
2023-04-16T19:18:31.588Z,98736.19
2023-04-16T19:21:01.476Z,98734.38
2023-04-16T19:23:28.236Z,98735.13
2023-04-16T19:25:57.819Z,98738.06
2023-04-16T19:28:24.901Z,98736.41
2023-04-16T19:30:52.475Z,98742.34
2023-04-16T19:33:19.075Z,98737.13
2023-04-16T19:35:46.481Z,98740.28
2023-04-16T19:38:13.162Z,98732.78
2023-04-16T19:40:40.311Z,98741.56
2023-04-16T19:43:06.828Z,98751.41
2023-04-16T19:45:33.410Z,98744.31
2023-04-16T19:48:00.315Z,98736.66
2023-04-16T19:50:26.945Z,98737.59
2023-04-16T19:52:53.671Z,98746.75
2023-04-16T19:55:20.192Z,98750.84
2023-04-16T19:57:47.929Z,98750.63
2023-04-16T20:00:15.015Z,98752.47
2023-04-16T20:02:41.607Z,98752.69
2023-04-16T20:05:08.762Z,98753.59
2023-04-16T20:07:35.281Z,98746.94
2023-04-16T20:10:02.997Z,98753.44
2023-04-16T20:12:29.558Z,98749.72
2023-04-16T20:14:56.135Z,98748.56
2023-04-16T20:17:23.232Z,98761.56
2023-04-16T20:19:51.387Z,98749.09
2023-04-16T20:22:18.763Z,98750.81
2023-04-16T20:24:48.021Z,98758.97
2023-04-16T20:27:15.204Z,98756.41
2023-04-16T20:29:41.905Z,98756.06
2023-04-16T20:32:08.430Z,98761.22
2023-04-16T20:34:34.932Z,98756.59
2023-04-16T20:37:01.416Z,98752.53
2023-04-16T20:39:27.943Z,98751.97
2023-04-16T20:41:57.095Z,98750.69
2023-04-16T20:44:26.404Z,98749.75
2023-04-16T20:46:55.543Z,98759.78
2023-04-16T20:49:22.111Z,98754.00
2023-04-16T20:51:48.751Z,98756.97
2023-04-16T20:54:15.922Z,98753.44
2023-04-16T20:56:43.213Z,98746.78
2023-04-16T20:59:10.197Z,98748.28
2023-04-16T21:01:37.033Z,98750.81
2023-04-16T21:04:03.763Z,98748.59
2023-04-16T21:06:32.896Z,98746.91
2023-04-16T21:08:59.415Z,98740.84
2023-04-16T21:11:26.208Z,98745.66
2023-04-16T21:13:52.888Z,98746.78
2023-04-16T21:16:19.473Z,98742.66
2023-04-16T21:18:46.185Z,98743.03
2023-04-16T21:21:12.672Z,98739.38
2023-04-16T21:23:39.185Z,98741.75
2023-04-16T21:26:05.856Z,98740.84
2023-04-16T21:28:32.523Z,98745.47
2023-04-16T21:30:59.026Z,98745.06
2023-04-16T21:33:25.622Z,98747.50
2023-04-16T21:35:52.894Z,98750.03
2023-04-16T21:38:19.990Z,98749.28
2023-04-16T21:40:50.537Z,98744.34
2023-04-16T21:43:17.824Z,98745.81
2023-04-16T21:45:44.318Z,98747.84
2023-04-16T21:48:10.929Z,98744.34
2023-04-16T21:50:37.501Z,98748.25
2023-04-16T21:53:06.492Z,98746.00
2023-04-16T21:55:35.181Z,98742.63
2023-04-16T21:58:02.548Z,98742.63
2023-04-16T22:00:29.744Z,98745.59
2023-04-16T22:02:56.541Z,98746.56
2023-04-16T22:05:24.076Z,98739.38
2023-04-16T22:07:51.478Z,98743.06
2023-04-16T22:10:18.428Z,98744.19
2023-04-16T22:12:45.645Z,98742.06
2023-04-16T22:15:13.307Z,98743.81
2023-04-16T22:17:40.455Z,98745.66
2023-04-16T22:20:13.341Z,98739.00
2023-04-16T22:22:43.664Z,98739.75
2023-04-16T22:25:10.876Z,98738.25
2023-04-16T22:27:37.602Z,98739.50
2023-04-16T22:30:05.888Z,98739.16
2023-04-16T22:32:33.142Z,98734.53
2023-04-16T22:34:59.715Z,98737.06
2023-04-16T22:37:26.195Z,98729.69
2023-04-16T22:39:52.651Z,98735.19
2023-04-16T22:42:19.168Z,98733.75
2023-04-16T22:44:45.927Z,98730.44
2023-04-16T22:47:12.430Z,98733.03
2023-04-16T22:49:38.917Z,98737.47
2023-04-16T22:52:05.488Z,98729.72
2023-04-16T22:54:32.308Z,98730.59
2023-04-16T22:56:59.216Z,98730.78
2023-04-16T22:59:26.006Z,98733.63
2023-04-16T23:01:52.974Z,98733.75
2023-04-16T23:04:19.716Z,98733.72
2023-04-16T23:06:46.331Z,98735.97
2023-04-16T23:09:13.171Z,98733.03
2023-04-16T23:11:39.891Z,98735.81
2023-04-16T23:14:06.379Z,98731.09
2023-04-16T23:16:32.941Z,98739.28
2023-04-16T23:18:59.435Z,98733.19
2023-04-16T23:21:26.231Z,98738.19
2023-04-16T23:23:52.738Z,98727.41
2023-04-16T23:26:19.226Z,98734.47
2023-04-16T23:28:45.797Z,98734.91
2023-04-16T23:31:12.637Z,98729.72
2023-04-16T23:33:39.190Z,98732.66
2023-04-16T23:36:06.023Z,98726.75
2023-04-16T23:38:32.561Z,98738.56
2023-04-16T23:40:59.175Z,98727.28
2023-04-16T23:43:26.147Z,98735.25
2023-04-16T23:45:52.765Z,98734.84
2023-04-16T23:48:19.421Z,98732.59
2023-04-16T23:50:45.930Z,98724.06
2023-04-16T23:53:12.467Z,98727.28
2023-04-16T23:55:39.379Z,98728.59
2023-04-16T23:58:05.860Z,98731.38
